createdAt,value
2023-11-11T00:00:13.133Z,8.25
2023-11-11T00:02:41.120Z,8.68
2023-11-11T00:05:09.489Z,8.80
2023-11-11T00:07:37.522Z,8.50
2023-11-11T00:10:06.745Z,8.40
2023-11-11T00:12:34.608Z,8.20
2023-11-11T00:15:02.537Z,8.08
2023-11-11T00:17:30.433Z,7.76
2023-11-11T00:20:00.669Z,7.57
2023-11-11T00:22:29.756Z,7.59
2023-11-11T00:24:57.459Z,7.32
2023-11-11T00:27:27.959Z,7.11
2023-11-11T00:29:57.430Z,7.10
2023-11-11T00:32:25.492Z,7.22
2023-11-11T00:34:54.919Z,7.02
2023-11-11T00:37:25.245Z,6.91
2023-11-11T00:39:53.384Z,6.93
2023-11-11T00:42:23.123Z,6.94
2023-11-11T00:44:51.934Z,7.09
2023-11-11T00:47:19.681Z,7.29
2023-11-11T00:49:50.865Z,7.09
2023-11-11T00:52:19.085Z,7.13
2023-11-11T00:54:46.689Z,7.19
2023-11-11T00:57:14.480Z,7.37
2023-11-11T00:59:42.183Z,7.51
2023-11-11T01:02:09.955Z,7.60
2023-11-11T01:04:38.292Z,7.76
2023-11-11T01:07:06.092Z,7.14
2023-11-11T01:09:33.985Z,7.24
2023-11-11T01:12:02.024Z,7.00
2023-11-11T01:14:29.738Z,6.94
2023-11-11T01:16:57.543Z,6.79
2023-11-11T01:19:25.333Z,6.50
2023-11-11T01:21:53.823Z,6.52
2023-11-11T01:24:21.779Z,6.38
2023-11-11T01:26:49.582Z,6.49
2023-11-11T01:29:17.253Z,6.17
2023-11-11T01:31:44.968Z,6.37
2023-11-11T01:34:12.646Z,7.17
2023-11-11T01:36:40.415Z,6.62
2023-11-11T01:39:08.229Z,6.56
2023-11-11T01:41:37.282Z,6.70
2023-11-11T01:44:05.432Z,6.45
2023-11-11T01:46:33.819Z,6.21
2023-11-11T01:49:02.004Z,6.35
2023-11-11T01:51:31.105Z,6.35
2023-11-11T01:54:00.176Z,6.17
2023-11-11T01:56:28.309Z,6.13
2023-11-11T01:58:56.369Z,6.29
2023-11-11T02:01:24.731Z,6.43
2023-11-11T02:03:52.781Z,6.30
2023-11-11T02:06:20.577Z,6.15
2023-11-11T02:08:48.531Z,6.40
2023-11-11T02:11:17.139Z,6.42
2023-11-11T02:13:45.116Z,6.86
2023-11-11T02:16:14.091Z,7.04
2023-11-11T02:18:42.302Z,7.12
2023-11-11T02:21:09.965Z,7.38
2023-11-11T02:23:38.682Z,7.11
2023-11-11T02:26:06.455Z,6.94
2023-11-11T02:28:34.184Z,7.03
2023-11-11T02:31:01.996Z,6.59
2023-11-11T02:33:29.839Z,6.67
2023-11-11T02:35:57.977Z,6.79
2023-11-11T02:38:25.762Z,7.24
2023-11-11T02:40:53.558Z,6.82
2023-11-11T02:43:21.267Z,7.02
2023-11-11T02:45:49.042Z,6.78
2023-11-11T02:48:16.885Z,7.01
2023-11-11T02:50:44.738Z,7.43
2023-11-11T02:53:13.646Z,7.57
2023-11-11T02:55:41.489Z,7.90
2023-11-11T02:58:09.200Z,7.91
2023-11-11T03:00:41.266Z,7.14
2023-11-11T03:03:09.257Z,7.00
2023-11-11T03:05:37.438Z,6.86
2023-11-11T03:08:05.331Z,7.40
2023-11-11T03:10:33.043Z,7.16
2023-11-11T03:13:01.973Z,7.69
2023-11-11T03:15:29.827Z,7.46
2023-11-11T03:17:57.630Z,6.73
2023-11-11T03:20:25.499Z,6.44
2023-11-11T03:22:53.290Z,6.24
2023-11-11T03:25:21.214Z,6.11
2023-11-11T03:27:48.967Z,6.24
2023-11-11T03:30:16.829Z,6.21
2023-11-11T03:32:44.652Z,6.09
2023-11-11T03:35:12.703Z,5.96
2023-11-11T03:37:40.513Z,5.90
2023-11-11T03:40:11.826Z,6.18
2023-11-11T03:42:39.763Z,6.27
2023-11-11T03:45:11.304Z,6.30
2023-11-11T03:47:40.618Z,6.23
2023-11-11T03:50:08.954Z,6.25
2023-11-11T03:52:36.792Z,5.90
2023-11-11T03:55:05.725Z,6.10
2023-11-11T03:57:33.472Z,6.40
2023-11-11T04:00:01.336Z,7.39
2023-11-11T04:02:29.127Z,7.11
2023-11-11T04:04:57.283Z,7.01
2023-11-11T04:07:25.552Z,6.75
2023-11-11T04:09:53.337Z,6.34
2023-11-11T04:12:21.116Z,6.40
2023-11-11T04:14:48.969Z,6.21
2023-11-11T04:17:16.735Z,6.84
2023-11-11T04:19:47.643Z,6.89
2023-11-11T04:22:15.521Z,6.95
2023-11-11T04:24:43.376Z,7.45
2023-11-11T04:27:11.186Z,7.28
2023-11-11T04:29:38.938Z,6.80
2023-11-11T04:32:08.665Z,7.15
2023-11-11T04:34:36.545Z,6.73
2023-11-11T04:37:04.332Z,7.01
2023-11-11T04:39:32.378Z,6.78
2023-11-11T04:42:01.576Z,6.44
2023-11-11T04:44:29.501Z,6.18
2023-11-11T04:46:57.297Z,6.26
2023-11-11T04:49:25.856Z,6.32
2023-11-11T04:51:53.556Z,6.64
2023-11-11T04:54:21.369Z,6.97
2023-11-11T04:56:49.164Z,7.31
2023-11-11T04:59:16.858Z,7.30
2023-11-11T05:01:44.836Z,7.36
2023-11-11T05:04:12.774Z,7.47
2023-11-11T05:06:40.929Z,7.81
2023-11-11T05:09:08.777Z,7.94
2023-11-11T05:11:37.963Z,8.21
2023-11-11T05:14:11.379Z,8.41
2023-11-11T05:16:42.361Z,8.58
2023-11-11T05:19:10.466Z,8.48
2023-11-11T05:21:38.481Z,8.21
2023-11-11T05:24:06.877Z,8.45
2023-11-11T05:26:34.586Z,8.61
2023-11-11T05:29:02.440Z,8.67
2023-11-11T05:31:32.802Z,8.69
2023-11-11T05:34:00.715Z,8.78
2023-11-11T05:36:28.863Z,9.03
2023-11-11T05:38:56.705Z,9.12
2023-11-11T05:41:24.549Z,9.25
2023-11-11T05:43:52.540Z,9.01
2023-11-11T05:46:21.607Z,8.69
2023-11-11T05:48:49.490Z,8.76
2023-11-11T05:51:17.341Z,8.87
2023-11-11T05:53:45.075Z,9.03
2023-11-11T05:56:14.723Z,9.12
2023-11-11T05:58:42.476Z,9.06
2023-11-11T06:01:10.485Z,9.16
2023-11-11T06:03:38.898Z,9.42
2023-11-11T06:06:07.197Z,9.26
2023-11-11T06:08:35.073Z,8.95
2023-11-11T06:11:03.561Z,8.96
2023-11-11T06:13:31.333Z,9.35
2023-11-11T06:15:59.159Z,9.37
2023-11-11T06:18:27.235Z,9.13
2023-11-11T06:20:54.972Z,8.94
2023-11-11T06:25:53.533Z,9.22
2023-11-11T06:28:21.275Z,8.86
2023-11-11T06:30:49.021Z,8.28
2023-11-11T06:33:16.918Z,8.43
2023-11-11T06:35:44.752Z,8.84
2023-11-11T06:38:13.585Z,8.77
2023-11-11T06:40:41.516Z,8.65
2023-11-11T06:43:09.355Z,9.16
2023-11-11T06:45:41.209Z,9.27
2023-11-11T06:48:09.002Z,9.28
2023-11-11T06:50:36.728Z,9.29
2023-11-11T06:53:04.554Z,9.21
2023-11-11T06:55:33.206Z,9.10
2023-11-11T06:58:01.666Z,9.35
2023-11-11T07:00:33.290Z,8.85
2023-11-11T07:03:01.059Z,8.85
2023-11-11T07:05:28.859Z,9.22
2023-11-11T07:07:56.618Z,9.19
2023-11-11T07:10:24.313Z,9.63
2023-11-11T07:12:52.934Z,9.38
2023-11-11T07:15:22.359Z,9.35
2023-11-11T07:17:50.578Z,9.08
2023-11-11T07:20:20.540Z,8.83
2023-11-11T07:22:51.728Z,8.76
2023-11-11T07:25:20.952Z,8.78
2023-11-11T07:27:48.685Z,8.51
2023-11-11T07:30:16.720Z,8.49
2023-11-11T07:32:56.831Z,8.86
2023-11-11T07:35:27.949Z,9.06
2023-11-11T07:37:56.318Z,8.96
2023-11-11T07:40:26.946Z,9.19
2023-11-11T07:42:57.223Z,9.20
2023-11-11T07:45:26.244Z,9.30
2023-11-11T07:47:54.376Z,9.06
2023-11-11T07:50:23.308Z,9.24
2023-11-11T07:52:51.399Z,9.17
2023-11-11T07:55:19.191Z,9.27
2023-11-11T08:00:20.243Z,9.17
2023-11-11T08:02:50.581Z,9.28
2023-11-11T08:05:18.698Z,9.18
2023-11-11T08:07:46.835Z,9.26
2023-11-11T08:10:14.923Z,9.42
2023-11-11T08:12:42.613Z,9.19
2023-11-11T08:15:12.207Z,9.38
2023-11-11T08:17:40.137Z,9.35
2023-11-11T08:20:12.878Z,9.47
2023-11-11T08:22:41.374Z,9.47
2023-11-11T08:25:09.888Z,9.52
2023-11-11T08:27:37.702Z,9.01
2023-11-11T08:30:07.402Z,9.21
2023-11-11T08:32:35.218Z,8.56
2023-11-11T08:35:03.059Z,9.02
2023-11-11T08:37:30.752Z,9.55
2023-11-11T08:39:58.517Z,9.80
2023-11-11T08:42:27.253Z,9.73
2023-11-11T08:44:59.087Z,9.18
2023-11-11T08:47:26.977Z,9.48
2023-11-11T08:49:57.990Z,9.47
2023-11-11T08:52:25.704Z,9.55
2023-11-11T08:54:54.518Z,9.70
2023-11-11T08:57:22.302Z,9.56
2023-11-11T08:59:50.379Z,9.49
2023-11-11T09:02:18.512Z,9.59
2023-11-11T09:04:46.062Z,9.66
2023-11-11T09:07:14.267Z,9.39
2023-11-11T09:09:41.998Z,9.27
2023-11-11T09:12:10.000Z,9.90
2023-11-11T09:14:37.851Z,10.53
2023-11-11T09:17:06.776Z,10.77
2023-11-11T09:19:34.969Z,11.24
2023-11-11T09:22:02.574Z,11.48
2023-11-11T09:24:30.367Z,12.35
2023-11-11T09:29:29.008Z,12.78
2023-11-11T09:31:56.902Z,13.56
2023-11-11T09:34:25.253Z,13.18
2023-11-11T09:36:54.181Z,13.50
2023-11-11T09:39:22.110Z,13.45
2023-11-11T09:41:49.881Z,12.97
2023-11-11T09:46:54.031Z,12.01
2023-11-11T09:49:22.245Z,11.35
2023-11-11T09:51:50.776Z,11.33
2023-11-11T09:54:18.580Z,10.87
2023-11-11T09:59:18.025Z,10.69
2023-11-11T10:01:45.830Z,10.33
2023-11-11T10:04:15.281Z,10.34
2023-11-11T10:06:43.239Z,10.37
2023-11-11T10:09:13.008Z,10.38
2023-11-11T10:11:40.837Z,11.12
2023-11-11T10:14:09.686Z,11.68
2023-11-11T10:16:38.941Z,11.88
2023-11-11T10:19:13.439Z,11.11
2023-11-11T10:21:41.733Z,10.53
2023-11-11T10:24:10.310Z,11.16
2023-11-11T10:26:42.683Z,11.61
2023-11-11T10:29:13.798Z,11.33
2023-11-11T10:31:44.572Z,11.11
2023-11-11T10:34:12.546Z,11.41
2023-11-11T10:36:42.177Z,11.89
2023-11-11T10:39:13.644Z,12.21
2023-11-11T10:41:44.734Z,12.13
2023-11-11T10:44:12.566Z,12.36
2023-11-11T10:46:42.060Z,13.22
2023-11-11T10:49:09.892Z,13.46
2023-11-11T10:51:39.015Z,13.51
2023-11-11T10:54:07.183Z,13.21
2023-11-11T10:56:34.831Z,14.02
2023-11-11T10:59:07.279Z,14.01
2023-11-11T11:01:37.341Z,14.27
2023-11-11T11:04:07.245Z,14.30
2023-11-11T11:06:47.060Z,13.44
2023-11-11T11:09:45.229Z,12.91
2023-11-11T11:13:00.838Z,12.71
2023-11-11T11:15:29.920Z,12.20
2023-11-11T11:17:57.681Z,12.36
2023-11-11T11:20:27.514Z,12.56
2023-11-11T11:23:01.873Z,12.29
2023-11-11T11:25:35.826Z,11.94
2023-11-11T11:28:13.702Z,11.85
2023-11-11T11:30:47.485Z,11.48
2023-11-11T11:33:20.086Z,12.40
2023-11-11T11:36:05.502Z,12.82
2023-11-11T11:38:40.137Z,12.78
2023-11-11T11:41:22.403Z,11.72
2023-11-11T11:43:55.353Z,11.64
2023-11-11T11:46:24.017Z,11.62
2023-11-11T11:48:52.562Z,11.84
2023-11-11T11:51:21.282Z,12.74
2023-11-11T11:53:51.251Z,13.21
2023-11-11T11:56:33.765Z,12.92
2023-11-11T11:59:04.649Z,13.46
2023-11-11T12:01:36.524Z,13.09
2023-11-11T12:04:05.327Z,13.14
2023-11-11T12:06:40.635Z,13.28
2023-11-11T12:09:13.643Z,13.55
2023-11-11T12:11:41.329Z,12.98
2023-11-11T12:14:10.524Z,13.17
2023-11-11T12:16:39.245Z,13.07
2023-11-11T12:19:18.488Z,12.86
2023-11-11T12:21:48.892Z,12.70
2023-11-11T12:24:19.790Z,12.57
2023-11-11T12:26:52.297Z,12.23
2023-11-11T12:29:20.600Z,12.57
2023-11-11T12:31:49.488Z,12.60
2023-11-11T12:34:20.348Z,12.79
2023-11-11T12:36:48.787Z,12.73
2023-11-11T12:39:17.040Z,12.68
2023-11-11T12:41:52.909Z,12.98
2023-11-11T12:44:22.159Z,13.05
2023-11-11T12:46:49.942Z,12.90
2023-11-11T12:49:29.059Z,13.17
2023-11-11T12:52:00.897Z,12.69
2023-11-11T12:54:34.617Z,12.45
2023-11-11T12:57:03.457Z,12.53
2023-11-11T12:59:31.764Z,12.07
2023-11-11T13:02:06.678Z,12.29
2023-11-11T13:04:35.210Z,12.29
2023-11-11T13:07:18.609Z,12.02
2023-11-11T13:09:47.009Z,12.42
2023-11-11T13:12:16.127Z,12.19
2023-11-11T13:14:47.242Z,12.44
2023-11-11T13:17:15.245Z,12.05
2023-11-11T13:19:44.374Z,12.46
2023-11-11T13:22:13.676Z,12.56
2023-11-11T13:24:41.712Z,12.41
2023-11-11T13:27:09.505Z,12.26
2023-11-11T13:29:37.433Z,11.92
2023-11-11T13:32:05.871Z,12.37
2023-11-11T13:34:35.040Z,12.40
2023-11-11T13:37:12.538Z,12.35
2023-11-11T13:39:52.794Z,12.57
2023-11-11T13:42:22.954Z,12.60
2023-11-11T13:44:51.671Z,12.19
2023-11-11T13:47:21.505Z,12.34
2023-11-11T13:49:49.321Z,12.53
2023-11-11T13:52:17.133Z,12.49
2023-11-11T13:54:45.571Z,12.45
2023-11-11T13:57:15.046Z,12.30
2023-11-11T13:59:42.756Z,12.30
2023-11-11T14:02:12.985Z,11.67
2023-11-11T14:04:45.808Z,11.80
2023-11-11T14:07:14.865Z,11.89
2023-11-11T14:09:42.707Z,12.21
2023-11-11T14:12:12.027Z,11.63
2023-11-11T14:14:40.883Z,11.14
2023-11-11T14:17:08.818Z,11.16
2023-11-11T14:19:36.605Z,10.79
2023-11-11T14:22:04.589Z,10.68
2023-11-11T14:24:51.932Z,11.55
2023-11-11T14:27:19.656Z,11.04
2023-11-11T14:29:48.728Z,11.20
2023-11-11T14:32:17.687Z,11.42
2023-11-11T14:34:45.641Z,11.11
2023-11-11T14:37:14.031Z,10.93
2023-11-11T14:39:46.515Z,10.61
2023-11-11T14:42:16.700Z,10.92
2023-11-11T14:44:44.716Z,10.63
2023-11-11T14:47:12.574Z,10.92
2023-11-11T14:49:40.461Z,10.80
2023-11-11T14:52:10.875Z,11.18
2023-11-11T14:54:40.089Z,11.05
2023-11-11T14:57:07.869Z,11.20
2023-11-11T14:59:35.580Z,11.82
2023-11-11T15:02:05.010Z,11.45
2023-11-11T15:04:33.009Z,10.56
2023-11-11T15:07:00.856Z,9.77
2023-11-11T15:09:28.670Z,9.04
2023-11-11T15:11:56.449Z,9.08
2023-11-11T15:14:24.194Z,9.11
2023-11-11T15:16:52.053Z,9.11
2023-11-11T15:19:20.025Z,8.95
2023-11-11T15:21:50.582Z,8.45
2023-11-11T15:24:19.148Z,8.21
2023-11-11T15:26:47.852Z,8.28
2023-11-11T15:29:15.744Z,8.22
2023-11-11T15:31:43.999Z,8.11
2023-11-11T15:34:13.398Z,8.09
2023-11-11T15:36:41.681Z,8.00
2023-11-11T15:39:23.576Z,7.98
2023-11-11T15:41:54.669Z,8.24
2023-11-11T15:44:22.515Z,8.42
2023-11-11T15:46:51.539Z,8.77
2023-11-11T15:49:21.382Z,8.96
2023-11-11T15:51:51.126Z,9.18
2023-11-11T15:54:19.974Z,8.76
2023-11-11T15:56:49.766Z,9.04
2023-11-11T15:59:21.394Z,9.37
2023-11-11T16:01:49.337Z,9.26
2023-11-11T16:04:18.397Z,8.64
2023-11-11T16:06:46.257Z,8.34
2023-11-11T16:09:17.709Z,7.99
2023-11-11T16:11:46.076Z,7.76
2023-11-11T16:14:13.674Z,7.59
2023-11-11T16:16:41.997Z,7.62
2023-11-11T16:19:09.873Z,7.58
2023-11-11T16:21:37.785Z,7.59
2023-11-11T16:24:20.258Z,8.06
2023-11-11T16:26:54.515Z,7.76
2023-11-11T16:29:22.302Z,7.45
2023-11-11T16:31:50.109Z,8.57
2023-11-11T16:34:22.341Z,7.85
2023-11-11T16:36:50.117Z,7.62
2023-11-11T16:39:20.436Z,7.52
2023-11-11T16:41:52.455Z,7.64
2023-11-11T16:44:22.425Z,7.59
2023-11-11T16:46:50.161Z,7.55
2023-11-11T16:49:18.051Z,7.58
2023-11-11T16:51:46.971Z,7.27
2023-11-11T16:54:15.632Z,7.08
2023-11-11T16:56:43.817Z,7.09
2023-11-11T16:59:14.034Z,7.20
2023-11-11T17:01:41.972Z,6.93
2023-11-11T17:04:10.667Z,7.46
2023-11-11T17:06:38.460Z,7.26
2023-11-11T17:09:12.186Z,7.16
2023-11-11T17:11:46.917Z,7.01
2023-11-11T17:14:15.939Z,6.78
2023-11-11T17:16:45.288Z,6.99
2023-11-11T17:19:13.440Z,6.93
2023-11-11T17:21:41.174Z,7.13
2023-11-11T17:24:12.031Z,7.11
2023-11-11T17:26:40.201Z,6.86
2023-11-11T17:29:10.940Z,6.91
2023-11-11T17:31:38.826Z,7.31
2023-11-11T17:34:08.158Z,8.07
2023-11-11T17:36:37.394Z,7.63
2023-11-11T17:39:05.101Z,8.01
2023-11-11T17:41:35.662Z,7.47
2023-11-11T17:44:03.703Z,7.87
2023-11-11T17:46:31.665Z,7.96
2023-11-11T17:49:00.575Z,8.01
2023-11-11T17:51:28.371Z,8.06
2023-11-11T17:53:56.758Z,8.03
2023-11-11T17:56:28.370Z,7.89
2023-11-11T17:58:56.319Z,8.58
2023-11-11T18:01:24.199Z,8.34
2023-11-11T18:03:52.116Z,8.38
2023-11-11T18:06:19.874Z,8.37
2023-11-11T18:08:47.661Z,8.70
2023-11-11T18:11:15.606Z,8.51
2023-11-11T18:13:43.618Z,8.53
2023-11-11T18:16:18.760Z,8.67
2023-11-11T18:18:47.137Z,8.52
2023-11-11T18:21:15.276Z,8.67
2023-11-11T18:23:45.165Z,8.69
2023-11-11T18:26:13.787Z,8.39
2023-11-11T18:28:41.913Z,8.37
2023-11-11T18:31:09.992Z,8.05
2023-11-11T18:33:38.240Z,8.09
2023-11-11T18:36:09.492Z,8.19
2023-11-11T18:38:38.449Z,7.98
2023-11-11T18:41:08.182Z,7.50
2023-11-11T18:43:36.932Z,7.39
2023-11-11T18:46:05.004Z,7.70
2023-11-11T18:48:32.783Z,7.66
2023-11-11T18:51:00.574Z,8.02
2023-11-11T18:53:29.951Z,7.74
2023-11-11T18:55:58.534Z,7.48
2023-11-11T18:58:26.527Z,7.48
2023-11-11T19:00:56.428Z,7.00
2023-11-11T19:03:24.455Z,6.88
2023-11-11T19:05:53.866Z,6.82
2023-11-11T19:08:22.087Z,6.90
2023-11-11T19:10:49.723Z,6.22
2023-11-11T19:13:17.569Z,5.96
2023-11-11T19:15:45.454Z,6.20
2023-11-11T19:18:13.342Z,6.66
2023-11-11T19:20:42.065Z,6.54
2023-11-11T19:23:10.110Z,6.80
2023-11-11T19:25:37.978Z,6.38
2023-11-11T19:28:05.902Z,6.88
2023-11-11T19:30:33.654Z,7.55
2023-11-11T19:33:01.407Z,7.59
2023-11-11T19:35:29.375Z,7.24
2023-11-11T19:37:58.581Z,6.71
2023-11-11T19:40:27.062Z,6.80
2023-11-11T19:42:54.830Z,6.80
2023-11-11T19:45:24.447Z,6.84
2023-11-11T19:47:52.925Z,7.08
2023-11-11T19:50:20.677Z,7.49
2023-11-11T19:52:48.796Z,7.41
2023-11-11T19:55:16.511Z,7.40
2023-11-11T19:57:44.768Z,7.12
2023-11-11T20:00:12.901Z,7.23
2023-11-11T20:02:41.835Z,7.79
2023-11-11T20:05:10.130Z,7.97
2023-11-11T20:07:37.920Z,7.96
2023-11-11T20:10:06.903Z,7.80
2023-11-11T20:12:36.265Z,7.67
2023-11-11T20:15:04.398Z,7.93
2023-11-11T20:17:32.240Z,7.97
2023-11-11T20:19:59.964Z,7.76
2023-11-11T20:22:27.844Z,7.68
2023-11-11T20:24:55.529Z,7.55
2023-11-11T20:27:23.441Z,7.61
2023-11-11T20:29:52.611Z,7.54
2023-11-11T20:32:20.503Z,7.24
2023-11-11T20:34:48.409Z,7.22
2023-11-11T20:37:17.564Z,7.21
2023-11-11T20:39:45.418Z,7.26
2023-11-11T20:42:13.452Z,6.94
2023-11-11T20:44:41.295Z,6.94
2023-11-11T20:47:09.566Z,6.81
2023-11-11T20:49:38.125Z,6.46
2023-11-11T20:52:06.303Z,5.75
2023-11-11T20:54:34.874Z,5.04
2023-11-11T20:57:02.753Z,4.78
2023-11-11T20:59:32.115Z,4.63
2023-11-11T21:01:59.983Z,4.83
2023-11-11T21:04:30.078Z,5.26
2023-11-11T21:06:58.146Z,5.78
2023-11-11T21:09:25.847Z,5.90
2023-11-11T21:11:54.038Z,6.21
2023-11-11T21:14:23.176Z,6.17
2023-11-11T21:16:50.923Z,6.22
2023-11-11T21:19:19.332Z,5.54
2023-11-11T21:21:48.108Z,5.48
2023-11-11T21:24:19.136Z,5.07
2023-11-11T21:26:49.248Z,4.61
2023-11-11T21:29:17.596Z,4.41
2023-11-11T21:31:45.491Z,4.23
2023-11-11T21:34:13.387Z,4.10
2023-11-11T21:36:41.452Z,3.97
2023-11-11T21:39:10.806Z,3.84
2023-11-11T21:41:38.541Z,3.75
2023-11-11T21:44:09.836Z,3.73
2023-11-11T21:46:38.384Z,3.65
2023-11-11T21:49:07.122Z,3.57
2023-11-11T21:51:35.454Z,3.47
2023-11-11T21:54:03.268Z,3.36
2023-11-11T21:56:31.221Z,3.26
2023-11-11T21:59:00.176Z,3.27
2023-11-11T22:01:28.363Z,3.10
2023-11-11T22:03:56.219Z,3.30
2023-11-11T22:06:23.950Z,3.24
2023-11-11T22:08:51.706Z,3.30
2023-11-11T22:11:19.405Z,3.52
2023-11-11T22:13:47.772Z,3.99
2023-11-11T22:16:15.587Z,3.77
2023-11-11T22:18:43.366Z,4.48
2023-11-11T22:21:11.102Z,4.70
2023-11-11T22:23:39.242Z,4.98
2023-11-11T22:26:07.304Z,5.72
2023-11-11T22:28:35.649Z,6.39
2023-11-11T22:31:03.427Z,6.49
2023-11-11T22:33:31.202Z,6.75
2023-11-11T22:35:58.980Z,6.59
2023-11-11T22:38:26.686Z,5.66
2023-11-11T22:40:54.780Z,4.71
2023-11-11T22:43:22.517Z,4.18
2023-11-11T22:45:50.315Z,4.11
2023-11-11T22:48:18.048Z,3.82
2023-11-11T22:50:45.879Z,3.74
2023-11-11T22:53:13.709Z,3.65
2023-11-11T22:55:41.875Z,3.59
2023-11-11T22:58:09.971Z,3.60
2023-11-11T23:00:37.742Z,3.86
2023-11-11T23:03:13.187Z,3.95
2023-11-11T23:05:43.243Z,4.07
2023-11-11T23:08:11.867Z,4.14
2023-11-11T23:10:41.031Z,4.38
2023-11-11T23:13:11.644Z,5.37
2023-11-11T23:15:40.996Z,5.54
2023-11-11T23:18:11.660Z,4.89
2023-11-11T23:20:42.720Z,5.37
2023-11-11T23:23:11.685Z,5.22
2023-11-11T23:25:42.913Z,5.06
2023-11-11T23:28:11.712Z,4.89
2023-11-11T23:30:41.678Z,5.14
2023-11-11T23:33:12.242Z,4.62
2023-11-11T23:35:40.688Z,4.71
2023-11-11T23:38:08.815Z,4.43
2023-11-11T23:40:36.586Z,4.44
2023-11-11T23:43:04.497Z,4.21
2023-11-11T23:45:33.401Z,4.10
2023-11-11T23:48:02.516Z,4.02
2023-11-11T23:50:30.804Z,3.96
2023-11-11T23:52:58.668Z,4.64
2023-11-11T23:55:26.398Z,4.61
2023-11-11T23:57:54.148Z,4.61
